Barton, New York
Current Conditions -  °F | °C
As of 11:53 PM on Monday 26 Jan 2015 (Local Time) from KELM Reporting Station
Light Snow Light Snow  
Wind Chill: 18°   Ceiling: 4300
Heat Index: 18°   Visibility: 2.5mi
Dew Point: 14°   Wind: 3mph
Humidity: 84%   Direction: 30°NNE
Pressure: 29.84"   Gusts: NA
Location:  42.04°N, 76.45°W
Report Text: KELM 270453Z AUTO 03003KT 2 1/2SM -SN BR OVC043 M08/M10 A2984 RMK AO2 SLP121 P0000 T10781100 410721106
Loading
Personal Weather Stations






























Interactive Weather Map New forecast layout! Learn more

10-Day Weather Forecast

Advertisements
Track Severe Weather on mobile